Time Latitude Longitude Accuracy (66% radius in meters) Altitude (meters) Speed (km/hour) Bearing (degrees) Battery (%) GPS flag
13:45:19 57.203948 60.118140 0 0 0 0 1 delete
13:45:18 57.203947 60.118137 0 0 0 0 1 delete
13:45:17 57.203949 60.118131 0 0 0 0 1 delete
13:45:16 57.203954 60.118124 0 0 0 0 1 delete
13:45:15 57.203955 60.118109 0 0 0 0 1 delete
13:45:14 57.203949 60.118084 0 0 0 0 1 delete
13:45:13 57.203933 60.118046 0 0 0 0 1 delete
13:45:12 57.203913 60.117995 0 0 0 0 1 delete
13:45:11 57.203893 60.117937 0 0 0 0 1 delete
13:45:10 57.203874 60.117879 0 0 0 0 1 delete
13:45:09 57.203855 60.117820 0 0 0 0 1 delete
13:45:08 57.203839 60.117764 0 0 0 0 1 delete
13:45:07 57.203824 60.117708 0 0 0 0 1 delete
13:45:06 57.203809 60.117653 0 0 0 0 1 delete
13:45:05 57.203795 60.117600 0 0 0 0 1 delete
13:45:04 57.203779 60.117546 0 0 0 0 1 delete
13:45:03 57.203765 60.117496 0 0 0 0 1 delete
13:45:02 57.203750 60.117444 0 0 0 0 1 delete
13:45:01 57.203735 60.117398 0 0 0 0 1 delete
13:45:00 57.203721 60.117350 0 0 0 0 1 delete
13:44:59 57.203710 60.117301 0 0 0 0 1 delete
13:44:58 57.203700 60.117253 0 0 0 0 1 delete
13:44:57 57.203691 60.117206 0 0 0 0 1 delete
13:44:56 57.203681 60.117161 0 0 0 0 1 delete
13:44:55 57.203671 60.117116 0 0 0 0 1 delete
13:44:54 57.203663 60.117077 0 0 0 0 1 delete
13:44:53 57.203658 60.117042 0 0 0 0 1 delete
13:44:52 57.203656 60.117015 0 0 0 0 1 delete
13:44:51 57.203654 60.116996 0 0 0 0 1 delete
13:44:50 57.203652 60.116985 0 0 0 0 1 delete
13:44:49 57.203650 60.116977 0 0 0 0 1 delete
13:44:48 57.203649 60.116964 0 0 0 0 1 delete
13:44:47 57.203649 60.116944 0 0 0 0 1 delete
13:44:46 57.203650 60.116922 0 0 0 0 1 delete
13:44:45 57.203651 60.116898 0 0 0 0 1 delete
13:44:44 57.203654 60.116873 0 0 0 0 1 delete
13:44:43 57.203655 60.116845 0 0 0 0 1 delete
13:44:42 57.203660 60.116815 0 0 0 0 1 delete
13:44:41 57.203668 60.116785 0 0 0 0 1 delete
13:44:40 57.203679 60.116759 0 0 0 0 1 delete
13:44:39 57.203693 60.116739 0 0 0 0 1 delete
13:44:38 57.203709 60.116728 0 0 0 0 1 delete
13:44:37 57.203727 60.116723 0 0 0 0 1 delete
13:44:36 57.203746 60.116721 0 0 0 0 1 delete
13:44:35 57.203765 60.116723 0 0 0 0 1 delete
13:44:34 57.203783 60.116727 0 0 0 0 1 delete
13:44:33 57.203800 60.116733 0 0 0 0 1 delete
13:44:32 57.203816 60.116736 0 0 0 0 1 delete
13:44:31 57.203828 60.116737 0 0 0 0 1 delete
13:44:30 57.203839 60.116738 0 0 0 0 1 delete